Главная страница
METAR-TAF:

METAR-TAF

Аэропорты :

Аэропорт Хуари Бумедьен

Алжир, Алжир

широта: 36-43N, долгота: 003-15E, высота над уровнем моря: 25 м

Текущие метеонаблюдения

Эта сводка был подготовлена 23 минут назад, в 00:30 UTC
Ветер 2 Узел переменных направлений
Температура 20°C
Влажность 83%
Давление 1020 hPa
Видимость 10 км и более
небольшая облачность на высоте 2300 фута

METAR: DAAG 250030Z VRB02KT 9999 FEW023 20/17 Q1020

Время: 01:53 (00:53 UTC)

Прогноз

Эта сводка был подготовлена 1 час и 53 минут назад, в 23:00 UTC
Прогноз действительный с 25-го 00 UTC до 25-го 24 UTC
Ветер 2 Узел переменных направлений
Видимость 10 км и более
небольшая облачность на высоте 2300 фута
изменения
С 25-го 09 UTC до 25-го 12 UTC
Ветер 12 Узел от восточно-северо-восточный
изменения
С 25-го 18 UTC до 25-го 21 UTC
Ветер 2 Узел переменных направлений

TAF: DAAG 242300Z 2500/2524 VRB02KT 9999 FEW023 BECMG 2509/2512 06012KT BECMG 2518/2521 VRB02KT

Метеонаблюдения и прогнозы для более 4000 аэропортов (сводки METAR и TAF).

Имеющиеся станции представлены на карте желтыми и красными точками.

Чтобы увидеть название станции, наведите на нее мышь.

Затем щелкните, чтобы увидеть метеонаблюдения и метеопрогнозы.

Управление картой: чтобы увеличить масштаб, щелкните зеленые кнопки с черным крестиком; чтобы уменьшить масштаб, щелкните зеленую кнопку с тире; для просмотра соседних карт щелкайте зеленые стрелки.


METAR-TAF: